Time;durP1;ratioP1;P1;durP2;ratioP2;P2;SDS_P1;SDS_P2;PMS_P1;PMS_P2;Temp;Humidity;BMP_temperature;BMP_pressure;BME280_temperature;BME280_humidity;BME280_pressure;Samples;Min_cycle;Max_cycle;Signal;HPM_P1;HPM_P2
2023/01/20 00:00:10;;;;;;;;;28.00;23.33;;;;;-146.37;100.00;59337.28;5057169;28;11248;-82
2023/01/20 00:02:36;;;;;;;;;24.75;20.00;;;;;-146.37;100.00;59337.28;5041340;28;8783;-82
2023/01/20 00:05:01;;;;;;;;;20.00;18.00;;;;;-146.37;100.00;59337.28;5058819;28;8818;-82
2023/01/20 00:07:26;;;;;;;;;23.33;21.00;;;;;-146.37;100.00;59337.28;5058855;28;8819;-82
2023/01/20 00:09:52;;;;;;;;;25.33;19.67;;;;;-146.37;100.00;59337.28;5056927;28;8921;-83
2023/01/20 00:15:39;;;;;;;;;20.00;18.25;;;;;-146.37;100.00;59337.28;5058028;28;8700;-82
2023/01/20 00:18:04;;;;;;;;;26.00;22.00;;;;;-146.37;100.00;59337.28;5041704;28;8865;-82
2023/01/20 00:20:30;;;;;;;;;25.67;24.67;;;;;-146.37;100.00;59337.28;5058903;28;8838;-83
2023/01/20 00:22:55;;;;;;;;;25.33;22.00;;;;;-146.37;100.00;59337.28;5059515;28;8929;-83
2023/01/20 00:25:20;;;;;;;;;31.00;26.67;;;;;-146.37;100.00;59337.28;5059373;28;8831;-83
2023/01/20 00:27:46;;;;;;;;;28.67;20.33;;;;;-146.37;100.00;59337.28;5059504;28;8799;-83
2023/01/20 00:30:12;;;;;;;;;25.67;22.67;;;;;-146.37;100.00;59337.28;5061172;28;8803;-83
2023/01/20 00:32:43;;;;;;;;;21.75;18.75;;;;;-146.37;100.00;59337.28;5061412;28;8834;-83
2023/01/20 00:35:09;;;;;;;;;30.00;26.25;;;;;-146.37;100.00;59337.28;5075877;28;10271;-83
2023/01/20 00:37:34;;;;;;;;;25.67;22.33;;;;;-146.37;100.00;59337.28;5079748;28;8799;-82
2023/01/20 00:40:00;;;;;;;;;26.33;26.33;;;;;-146.37;100.00;59337.28;5081166;28;10231;-82
2023/01/20 00:42:25;;;;;;;;;33.33;27.00;;;;;-146.37;100.00;59337.28;5079076;28;8808;-83
2023/01/20 00:44:50;;;;;;;;;22.67;22.67;;;;;-146.37;100.00;59337.28;5075917;28;8812;-82
2023/01/20 00:47:16;;;;;;;;;26.67;26.00;;;;;-146.37;100.00;59337.28;5077682;28;8905;-82
2023/01/20 00:49:41;;;;;;;;;26.67;24.33;;;;;-146.37;100.00;59337.28;5078620;28;8823;-83
2023/01/20 00:52:07;;;;;;;;;22.67;22.67;;;;;-146.37;100.00;59337.28;5077533;28;8938;-83
2023/01/20 00:54:32;;;;;;;;;32.33;27.33;;;;;-146.37;100.00;59337.28;5079352;28;8819;-83
2023/01/20 00:56:57;;;;;;;;;24.33;23.33;;;;;-146.37;100.00;59337.28;5079033;28;8869;-82
2023/01/20 00:59:23;;;;;;;;;26.33;23.33;;;;;-146.37;100.00;59337.28;5077557;28;8839;-83
2023/01/20 01:01:48;;;;;;;;;29.00;25.00;;;;;-146.37;100.00;59337.28;5076035;28;8844;-83
2023/01/20 01:04:14;;;;;;;;;25.67;25.67;;;;;-146.37;100.00;59337.28;5077122;28;8931;-83
2023/01/20 01:06:39;;;;;;;;;25.33;23.33;;;;;-146.37;100.00;59337.28;5079420;28;8866;-83
2023/01/20 01:09:04;;;;;;;;;28.00;25.00;;;;;-146.37;100.00;59337.28;5078841;28;8939;-83
2023/01/20 01:11:30;;;;;;;;;25.33;24.00;;;;;-146.37;100.00;59337.28;5077613;28;9624;-83
2023/01/20 01:13:56;;;;;;;;;21.33;20.33;;;;;-146.37;100.00;59337.28;5080005;28;8808;-83
2023/01/20 01:16:22;;;;;;;;;24.33;22.00;;;;;-146.37;100.00;59337.28;5080250;28;8725;-83
2023/01/20 01:18:47;;;;;;;;;33.00;24.33;;;;;-146.37;100.00;59337.28;5076572;28;11613;-82
2023/01/20 01:21:15;;;;;;;;;23.33;20.67;;;;;-146.37;100.00;59337.28;5076687;28;8913;-82
2023/01/20 01:23:41;;;;;;;;;24.00;20.67;;;;;-146.37;100.00;59337.28;5078713;28;8789;-82
2023/01/20 01:26:08;;;;;;;;;26.00;24.33;;;;;-146.37;100.00;59337.28;5078637;28;9698;-82
2023/01/20 01:28:34;;;;;;;;;27.67;26.00;;;;;-146.37;100.00;59337.28;5080216;28;9020;-82
2023/01/20 01:31:04;;;;;;;;;23.33;16.67;;;;;-146.37;100.00;59337.28;5082070;28;9026;-82
2023/01/20 01:33:37;;;;;;;;;30.50;23.75;;;;;-146.37;100.00;59337.28;5060630;28;8804;-82
2023/01/20 01:36:03;;;;;;;;;19.00;18.50;;;;;-146.37;100.00;59337.28;5041529;28;8827;-82
2023/01/20 01:38:29;;;;;;;;;20.00;19.50;;;;;-146.37;100.00;59337.28;5041159;28;8755;-82
2023/01/20 01:40:55;;;;;;;;;28.33;27.00;;;;;-146.37;100.00;59337.28;5041812;28;8779;-82
2023/01/20 01:43:26;;;;;;;;;21.25;18.00;;;;;-146.37;100.00;59337.28;5057780;28;8752;-83
2023/01/20 01:45:52;;;;;;;;;24.00;22.00;;;;;-146.37;100.00;59337.28;5039197;28;8822;-83
2023/01/20 01:48:24;;;;;;;;;30.00;24.00;;;;;-146.37;100.00;59337.28;5057152;28;8791;-83
2023/01/20 01:50:57;;;;;;;;;30.75;24.25;;;;;-146.37;100.00;59337.28;5038559;28;8751;-83
2023/01/20 01:53:25;;;;;;;;;24.00;19.75;;;;;-146.37;100.00;59337.28;5056903;28;8751;-83
2023/01/20 01:55:55;;;;;;;;;29.25;26.00;;;;;-146.37;100.00;59337.28;5040661;28;8759;-83
2023/01/20 01:58:26;;;;;;;;;21.50;17.25;;;;;-146.37;100.00;59337.28;5054295;28;8819;-83
2023/01/20 02:00:52;;;;;;;;;25.25;19.50;;;;;-146.37;100.00;59337.28;5062159;28;8812;-82
2023/01/20 02:03:19;;;;;;;;;21.67;18.67;;;;;-146.37;100.00;59337.28;5046230;28;8821;-83
2023/01/20 02:05:46;;;;;;;;;25.50;24.75;;;;;-146.37;100.00;59337.28;5079006;28;8793;-82
2023/01/20 02:08:13;;;;;;;;;27.75;24.50;;;;;-146.37;100.00;59337.28;5079534;28;9415;-83
2023/01/20 02:10:38;;;;;;;;;19.00;15.67;;;;;-146.37;100.00;59337.28;5081583;28;8831;-81
2023/01/20 02:13:04;;;;;;;;;22.00;20.00;;;;;-146.37;100.00;59337.28;5061472;28;9382;-83
2023/01/20 02:15:38;;;;;;;;;24.00;19.67;;;;;-146.37;100.00;59337.28;5080642;28;8813;-83
2023/01/20 02:18:15;;;;;;;;;27.25;24.00;;;;;-146.37;100.00;59337.28;5078949;28;8899;-81
2023/01/20 02:21:24;;;;;;;;;24.00;21.50;;;;;-146.37;100.00;59337.28;5062190;28;8809;-82
2023/01/20 02:24:41;;;;;;;;;28.00;26.25;;;;;-146.37;100.00;59337.28;5081981;28;8795;-82
2023/01/20 02:27:13;;;;;;;;;26.25;24.50;;;;;-146.37;100.00;59337.28;4964317;28;9453;-82
2023/01/20 02:30:14;;;;;;;;;28.50;25.75;;;;;-146.37;100.00;59337.28;4962615;28;8815;-82
2023/01/20 02:33:27;;;;;;;;;22.75;22.25;;;;;-146.37;100.00;59337.28;4962429;28;8744;-81
2023/01/20 02:35:59;;;;;;;;;21.00;17.00;;;;;-146.37;100.00;59337.28;4961479;28;8819;-81
2023/01/20 02:38:55;;;;;;;;;23.75;18.00;;;;;-146.37;100.00;59337.28;4977075;28;8870;-82
2023/01/20 02:41:38;;;;;;;;;27.50;25.50;;;;;-146.37;100.00;59337.28;4978534;28;9347;-82
2023/01/20 02:44:18;;;;;;;;;21.75;20.00;;;;;-146.37;100.00;59337.28;4979384;28;8776;-82
2023/01/20 02:46:59;;;;;;;;;28.00;20.50;;;;;-146.37;100.00;59337.28;4961444;28;8792;-81
2023/01/20 02:49:28;;;;;;;;;31.50;24.50;;;;;-146.37;100.00;59337.28;4961627;28;9813;-82
2023/01/20 02:51:58;;;;;;;;;31.25;28.50;;;;;-146.37;100.00;59337.28;4978227;28;9594;-82
2023/01/20 02:54:29;;;;;;;;;27.50;24.75;;;;;-146.37;100.00;59337.28;4962330;28;8800;-82
2023/01/20 02:56:57;;;;;;;;;22.75;20.75;;;;;-146.37;100.00;59337.28;4961606;28;8788;-82
2023/01/20 02:59:28;;;;;;;;;25.50;21.00;;;;;-146.37;100.00;59337.28;4977977;28;8827;-82
2023/01/20 03:02:03;;;;;;;;;23.75;20.00;;;;;-146.37;100.00;59337.28;5073991;28;8789;-82
2023/01/20 03:04:34;;;;;;;;;19.00;14.75;;;;;-146.37;100.00;59337.28;5062355;28;8781;-82
2023/01/20 03:07:02;;;;;;;;;20.75;14.00;;;;;-146.37;100.00;59337.28;5080054;28;8803;-81
2023/01/20 03:09:38;;;;;;;;;20.50;17.50;;;;;-146.37;100.00;59337.28;5080232;28;8744;-81
2023/01/20 03:12:13;;;;;;;;;30.50;19.75;;;;;-146.37;100.00;59337.28;5062990;28;8785;-82
2023/01/20 03:14:39;;;;;;;;;27.50;22.75;;;;;-146.37;100.00;59337.28;5062658;28;8804;-81
2023/01/20 03:17:04;;;;;;;;;27.33;18.00;;;;;-146.37;100.00;59337.28;5080764;28;8785;-82
2023/01/20 03:19:30;;;;;;;;;21.67;15.67;;;;;-146.37;100.00;59337.28;5060131;28;8805;-81
2023/01/20 03:21:56;;;;;;;;;22.67;20.00;;;;;-146.37;100.00;59337.28;5076897;28;8784;-82
2023/01/20 03:24:24;;;;;;;;;23.75;23.75;;;;;-146.37;100.00;59337.28;5078429;28;8867;-82
2023/01/20 03:26:50;;;;;;;;;24.50;19.50;;;;;-146.37;100.00;59337.28;5064200;28;8734;-82
2023/01/20 03:29:17;;;;;;;;;23.25;18.00;;;;;-146.37;100.00;59337.28;5081195;28;8804;-81
2023/01/20 03:31:58;;;;;;;;;22.75;20.75;;;;;-146.37;100.00;59337.28;5061921;28;8876;-81
2023/01/20 03:34:26;;;;;;;;;21.00;18.50;;;;;-146.37;100.00;59337.28;5087354;28;8826;-81
2023/01/20 03:36:53;;;;;;;;;17.75;17.75;;;;;-146.37;100.00;59337.28;5100233;28;8890;-81
2023/01/20 03:39:19;;;;;;;;;21.00;20.50;;;;;-146.37;100.00;59337.28;5082788;28;8779;-81
2023/01/20 03:42:01;;;;;;;;;17.50;15.25;;;;;-146.37;100.00;59337.28;5082753;28;9605;-82
2023/01/20 03:44:47;;;;;;;;;17.75;15.50;;;;;-146.37;100.00;59337.28;5100866;28;8775;-82
2023/01/20 03:47:29;;;;;;;;;19.50;17.25;;;;;-146.37;100.00;59337.28;5101201;28;8723;-82
2023/01/20 03:53:48;;;;;;;;;21.75;19.00;;;;;-146.37;100.00;59337.28;5083463;28;8777;-82
2023/01/20 03:56:20;;;;;;;;;22.00;15.75;;;;;-146.37;100.00;59337.28;5021341;28;8803;-83
2023/01/20 03:58:50;;;;;;;;;20.75;17.50;;;;;-146.37;100.00;59337.28;5004970;28;8772;-82
2023/01/20 04:01:20;;;;;;;;;13.50;12.50;;;;;-146.37;100.00;59337.28;5020926;28;8829;-82
2023/01/20 04:03:49;;;;;;;;;21.50;15.50;;;;;-146.37;100.00;59337.28;5001997;28;8779;-83
2023/01/20 04:06:18;;;;;;;;;16.75;15.25;;;;;-146.37;100.00;59337.28;5000792;28;8736;-83
2023/01/20 04:08:50;;;;;;;;;16.25;16.00;;;;;-146.37;100.00;59337.28;5000123;28;8811;-82
2023/01/20 04:11:15;;;;;;;;;21.75;21.00;;;;;-146.37;100.00;59337.28;5036589;28;9611;-82
2023/01/20 04:13:41;;;;;;;;;24.00;17.67;;;;;-146.37;100.00;59337.28;5020125;28;8813;-81
2023/01/20 04:16:15;;;;;;;;;15.33;13.67;;;;;-146.37;100.00;59337.28;5037055;28;8821;-82
2023/01/20 04:18:46;;;;;;;;;19.75;16.50;;;;;-146.37;100.00;59337.28;5020347;28;8802;-82
2023/01/20 04:21:37;;;;;;;;;19.50;19.50;;;;;-146.37;100.00;59337.28;5018539;28;8814;-84
2023/01/20 04:24:21;;;;;;;;;23.25;17.75;;;;;-146.37;100.00;59337.28;5036684;28;8782;-82
2023/01/20 04:26:47;;;;;;;;;18.00;18.00;;;;;-146.37;100.00;59337.28;5037320;28;8915;-83
2023/01/20 04:29:12;;;;;;;;;21.67;19.00;;;;;-146.37;100.00;59337.28;5019901;28;8936;-82
2023/01/20 04:31:38;;;;;;;;;21.67;18.33;;;;;-146.37;100.00;59337.28;5041930;28;9065;-82
2023/01/20 04:34:11;;;;;;;;;20.33;19.67;;;;;-146.37;100.00;59337.28;5060817;28;8882;-83
2023/01/20 04:36:36;;;;;;;;;17.75;15.25;;;;;-146.37;100.00;59337.28;5078613;28;8726;-82
2023/01/20 04:39:01;;;;;;;;;21.67;18.00;;;;;-146.37;100.00;59337.28;5078327;28;8998;-83
2023/01/20 04:41:27;;;;;;;;;23.00;20.67;;;;;-146.37;100.00;59337.28;5079396;28;8832;-83
2023/01/20 04:43:52;;;;;;;;;18.33;17.00;;;;;-146.37;100.00;59337.28;5077982;28;8812;-83
2023/01/20 04:46:17;;;;;;;;;25.67;23.67;;;;;-146.37;100.00;59337.28;5077347;28;8828;-82
2023/01/20 04:48:45;;;;;;;;;24.67;20.00;;;;;-146.37;100.00;59337.28;5060440;28;8835;-81
2023/01/20 04:51:10;;;;;;;;;19.75;14.50;;;;;-146.37;100.00;59337.28;5060604;28;8745;-82
2023/01/20 04:53:36;;;;;;;;;27.67;21.00;;;;;-146.37;100.00;59337.28;5060791;28;9314;-82
2023/01/20 04:56:01;;;;;;;;;24.00;21.00;;;;;-146.37;100.00;59337.28;5078192;28;8835;-83
2023/01/20 04:58:27;;;;;;;;;23.00;21.00;;;;;-146.37;100.00;59337.28;5077757;28;8824;-84
2023/01/20 05:00:52;;;;;;;;;26.67;23.00;;;;;-146.37;100.00;59337.28;5077765;28;9641;-82
2023/01/20 05:03:17;;;;;;;;;23.67;20.33;;;;;-146.37;100.00;59337.28;5060160;28;8839;-82
2023/01/20 05:05:43;;;;;;;;;24.67;21.67;;;;;-146.37;100.00;59337.28;5059991;28;8895;-82
2023/01/20 05:08:08;;;;;;;;;17.33;17.33;;;;;-146.37;100.00;59337.28;5059887;28;8821;-82
2023/01/20 05:10:34;;;;;;;;;27.67;22.00;;;;;-146.37;100.00;59337.28;5080918;28;8821;-83
2023/01/20 05:13:00;;;;;;;;;25.33;22.67;;;;;-146.37;100.00;59337.28;5079669;28;8921;-83
2023/01/20 05:15:26;;;;;;;;;28.00;23.25;;;;;-146.37;100.00;59337.28;5097564;28;8720;-83
2023/01/20 05:17:53;;;;;;;;;24.00;22.25;;;;;-146.37;100.00;59337.28;5099136;28;8754;-83
2023/01/20 05:20:19;;;;;;;;;27.50;21.50;;;;;-146.37;100.00;59337.28;5080989;28;8755;-83
2023/01/20 05:22:46;;;;;;;;;28.25;24.50;;;;;-146.37;100.00;59337.28;5096919;28;8786;-83
2023/01/20 05:25:11;;;;;;;;;18.25;16.50;;;;;-146.37;100.00;59337.28;5097405;28;8897;-82
2023/01/20 05:27:37;;;;;;;;;16.33;14.67;;;;;-146.37;100.00;59337.28;5098839;28;8991;-83
2023/01/20 05:30:04;;;;;;;;;26.33;25.33;;;;;-146.37;100.00;59337.28;5080909;28;8811;-83
2023/01/20 05:32:29;;;;;;;;;24.00;20.00;;;;;-146.37;100.00;59337.28;5104318;28;8720;-82
2023/01/20 05:34:54;;;;;;;;;28.33;25.00;;;;;-146.37;100.00;59337.28;5080146;28;9011;-82
2023/01/20 05:37:20;;;;;;;;;21.00;19.33;;;;;-146.37;100.00;59337.28;5081870;28;8823;-83
2023/01/20 05:39:46;;;;;;;;;24.33;20.00;;;;;-146.37;100.00;59337.28;5082296;28;8832;-82
2023/01/20 05:42:12;;;;;;;;;21.25;20.25;;;;;-146.37;100.00;59337.28;5080533;28;8834;-83
2023/01/20 05:44:37;;;;;;;;;30.33;24.67;;;;;-146.37;100.00;59337.28;5082510;28;8812;-82
2023/01/20 05:47:03;;;;;;;;;21.67;20.67;;;;;-146.37;100.00;59337.28;5082375;28;8744;-83
2023/01/20 05:49:28;;;;;;;;;26.33;22.67;;;;;-146.37;100.00;59337.28;5080584;28;8827;-83
2023/01/20 05:52:31;;;;;;;;;28.67;25.33;;;;;-146.37;100.00;59337.28;5083027;28;8824;-83
2023/01/20 05:54:57;;;;;;;;;29.00;18.50;;;;;-146.37;100.00;59337.28;5083502;28;8807;-82
2023/01/20 05:57:24;;;;;;;;;27.00;23.00;;;;;-146.37;100.00;59337.28;5080936;28;8870;-83
2023/01/20 05:59:50;;;;;;;;;31.25;26.25;;;;;-146.37;100.00;59337.28;5085071;28;8817;-82
2023/01/20 06:02:18;;;;;;;;;29.50;25.50;;;;;-146.37;100.00;59337.28;5099702;28;8781;-83
2023/01/20 06:04:45;;;;;;;;;26.25;23.50;;;;;-146.37;100.00;59337.28;5097918;28;8786;-83
2023/01/20 06:07:10;;;;;;;;;28.75;26.25;;;;;-146.37;100.00;59337.28;5100479;28;8881;-83
2023/01/20 06:09:36;;;;;;;;;27.00;24.33;;;;;-146.37;100.00;59337.28;5101612;28;8890;-82
2023/01/20 06:12:02;;;;;;;;;29.67;26.33;;;;;-146.37;100.00;59337.28;5100740;28;8801;-83
2023/01/20 06:14:27;;;;;;;;;33.67;29.67;;;;;-146.37;100.00;59337.28;5100298;28;8793;-83
2023/01/20 06:16:52;;;;;;;;;29.67;27.67;;;;;-146.37;100.00;59337.28;5100304;28;8817;-82
2023/01/20 06:19:18;;;;;;;;;28.33;24.00;;;;;-146.37;100.00;59337.28;5101240;28;8973;-82
2023/01/20 06:21:43;;;;;;;;;26.33;24.33;;;;;-146.37;100.00;59337.28;5100408;28;8828;-81
2023/01/20 06:24:09;;;;;;;;;34.00;23.67;;;;;-146.37;100.00;59337.28;5098460;28;8809;-82
2023/01/20 06:26:35;;;;;;;;;26.00;21.75;;;;;-146.37;100.00;59337.28;5099804;28;8725;-82
2023/01/20 06:29:00;;;;;;;;;33.33;28.67;;;;;-146.37;100.00;59337.28;5100041;28;8805;-82
2023/01/20 06:31:27;;;;;;;;;23.33;21.67;;;;;-146.37;100.00;59337.28;5098293;28;8790;-83
2023/01/20 06:33:53;;;;;;;;;23.00;23.00;;;;;-146.37;100.00;59337.28;5097779;28;8770;-82
2023/01/20 06:36:19;;;;;;;;;29.00;29.00;;;;;-146.37;100.00;59337.28;5060733;28;9175;-83
2023/01/20 06:38:49;;;;;;;;;25.67;23.67;;;;;-146.37;100.00;59337.28;5079676;28;8745;-82
2023/01/20 06:41:15;;;;;;;;;32.67;28.67;;;;;-146.37;100.00;59337.28;5080643;28;8907;-82
2023/01/20 06:43:41;;;;;;;;;28.75;25.75;;;;;-146.37;100.00;59337.28;5064560;28;8883;-82
2023/01/20 06:46:12;;;;;;;;;27.33;25.00;;;;;-146.37;100.00;59337.28;5062236;28;8952;-82
2023/01/20 06:48:38;;;;;;;;;35.00;27.00;;;;;-146.37;100.00;59337.28;5063583;28;8766;-83
2023/01/20 06:51:07;;;;;;;;;26.75;24.00;;;;;-146.37;100.00;59337.28;5063862;28;9784;-83
2023/01/20 06:53:32;;;;;;;;;36.00;28.67;;;;;-146.37;100.00;59337.28;5082002;28;8765;-83
2023/01/20 06:55:59;;;;;;;;;28.00;24.67;;;;;-146.37;100.00;59337.28;5063472;28;9052;-82
2023/01/20 06:58:27;;;;;;;;;25.00;23.67;;;;;-146.37;100.00;59337.28;5062827;28;8773;-82
2023/01/20 07:00:55;;;;;;;;;31.00;24.25;;;;;-146.37;100.00;59337.28;5079839;28;8933;-82
2023/01/20 07:03:21;;;;;;;;;28.25;26.00;;;;;-146.37;100.00;59337.28;5064164;28;8749;-82
2023/01/20 07:05:56;;;;;;;;;21.67;21.67;;;;;-146.37;100.00;59337.28;5081757;28;8769;-82
2023/01/20 07:08:22;;;;;;;;;33.00;27.00;;;;;-146.37;100.00;59337.28;5062625;28;8748;-82
2023/01/20 07:10:47;;;;;;;;;26.33;23.67;;;;;-146.37;100.00;59337.28;5079929;28;9300;-83
2023/01/20 07:13:14;;;;;;;;;23.67;22.33;;;;;-146.37;100.00;59337.28;5062518;28;8820;-83
2023/01/20 07:15:39;;;;;;;;;26.75;23.50;;;;;-146.37;100.00;59337.28;5062004;28;8785;-81
2023/01/20 07:18:06;;;;;;;;;29.33;25.00;;;;;-146.37;100.00;59337.28;5062103;28;8797;-82
2023/01/20 07:20:31;;;;;;;;;33.00;28.33;;;;;-146.37;100.00;59337.28;5065734;28;9217;-81
2023/01/20 07:23:00;;;;;;;;;31.67;28.67;;;;;-146.37;100.00;59337.28;5062252;28;9026;-82
2023/01/20 07:25:26;;;;;;;;;59.75;47.75;;;;;-146.37;100.00;59337.28;5063677;28;8808;-82
2023/01/20 07:27:52;;;;;;;;;44.50;40.50;;;;;-146.37;100.00;59337.28;5079230;28;10263;-82
2023/01/20 07:30:17;;;;;;;;;54.50;47.00;;;;;-146.37;100.00;59337.28;5081158;28;8902;-81
2023/01/20 07:32:46;;;;;;;;;45.00;39.75;;;;;-146.37;100.00;59337.28;5061381;28;8824;-83
2023/01/20 07:35:57;;;;;;;;;34.33;31.33;;;;;-146.37;100.00;59337.28;5074854;28;8809;-83
2023/01/20 07:38:22;;;;;;;;;39.00;29.67;;;;;-146.37;100.00;59337.28;5083458;28;9064;-84
2023/01/20 07:40:48;;;;;;;;;34.00;31.33;;;;;-146.37;100.00;59337.28;5065263;28;9078;-82
2023/01/20 07:43:13;;;;;;;;;29.00;26.67;;;;;-146.37;100.00;59337.28;5080774;28;8802;-83
2023/01/20 07:45:39;;;;;;;;;29.33;28.33;;;;;-146.37;100.00;59337.28;5081222;28;8835;-83
2023/01/20 07:48:06;;;;;;;;;31.33;29.00;;;;;-146.37;100.00;59337.28;5082633;28;8774;-83
2023/01/20 07:50:35;;;;;;;;;29.67;28.67;;;;;-146.37;100.00;59337.28;5083905;28;8853;-83
2023/01/20 07:53:01;;;;;;;;;27.00;26.00;;;;;-146.37;100.00;59337.28;5083593;28;8925;-83
2023/01/20 07:55:26;;;;;;;;;29.33;27.00;;;;;-146.37;100.00;59337.28;5080823;28;8949;-81
2023/01/20 07:57:52;;;;;;;;;33.33;28.67;;;;;-146.37;100.00;59337.28;5078339;28;8793;-82
2023/01/20 08:00:18;;;;;;;;;32.67;28.33;;;;;-146.37;100.00;59337.28;5079287;28;8800;-82
2023/01/20 08:02:45;;;;;;;;;30.33;30.00;;;;;-146.37;100.00;59337.28;5076958;28;8784;-83
2023/01/20 08:05:11;;;;;;;;;26.25;24.00;;;;;-146.37;100.00;59337.28;5064767;28;8873;-84
2023/01/20 08:07:36;;;;;;;;;66.75;55.25;;;;;-146.37;100.00;59337.28;5063108;28;8883;-84
2023/01/20 08:10:02;;;;;;;;;30.33;24.33;;;;;-146.37;100.00;59337.28;5081217;28;8825;-82
2023/01/20 08:12:28;;;;;;;;;32.33;30.00;;;;;-146.37;100.00;59337.28;5061230;28;8911;-84
2023/01/20 08:14:55;;;;;;;;;25.75;24.50;;;;;-146.37;100.00;59337.28;5078903;28;8727;-83
2023/01/20 08:17:21;;;;;;;;;26.00;21.00;;;;;-146.37;100.00;59337.28;5081428;28;8778;-85
2023/01/20 08:19:47;;;;;;;;;21.00;18.67;;;;;-146.37;100.00;59337.28;5062088;28;8798;-83
2023/01/20 08:22:12;;;;;;;;;21.33;21.00;;;;;-146.37;100.00;59337.28;5064020;28;8845;-82
2023/01/20 08:24:38;;;;;;;;;26.00;25.67;;;;;-146.37;100.00;59337.28;5064552;28;8837;-81
2023/01/20 08:27:04;;;;;;;;;32.33;28.00;;;;;-146.37;100.00;59337.28;5065447;28;8786;-85
2023/01/20 08:29:30;;;;;;;;;25.33;25.00;;;;;-146.37;100.00;59337.28;5081681;28;8780;-85
2023/01/20 08:31:59;;;;;;;;;24.75;20.75;;;;;-146.37;100.00;59337.28;5082850;28;8781;-86
2023/01/20 08:34:25;;;;;;;;;29.50;21.00;;;;;-146.37;100.00;59337.28;5061360;28;8738;-82
2023/01/20 08:36:52;;;;;;;;;28.67;25.33;;;;;-146.37;100.00;59337.28;5083790;28;8801;-83
2023/01/20 08:39:22;;;;;;;;;26.00;24.33;;;;;-146.37;100.00;59337.28;5086463;28;10231;-84
2023/01/20 08:41:49;;;;;;;;;21.25;18.00;;;;;-146.37;100.00;59337.28;5083747;28;9573;-84
2023/01/20 08:44:15;;;;;;;;;14.00;14.00;;;;;-146.37;100.00;59337.28;5102722;28;8754;-84
2023/01/20 08:46:41;;;;;;;;;27.50;26.25;;;;;-146.37;100.00;59337.28;5104228;28;8854;-82
2023/01/20 08:49:09;;;;;;;;;32.00;25.33;;;;;-146.37;100.00;59337.28;5116679;28;8795;-83
2023/01/20 08:54:58;;;;;;;;;19.75;17.00;;;;;-146.37;100.00;59337.28;5126563;28;8703;-85
2023/01/20 08:57:26;;;;;;;;;17.00;15.75;;;;;-146.37;100.00;59337.28;5105744;28;9071;-84
2023/01/20 08:59:53;;;;;;;;;21.75;18.50;;;;;-146.37;100.00;59337.28;5105341;28;9537;-85
2023/01/20 09:02:18;;;;;;;;;26.00;21.75;;;;;-146.37;100.00;59337.28;5082593;28;8731;-84
2023/01/20 09:04:44;;;;;;;;;23.33;23.33;;;;;-146.37;100.00;59337.28;5081743;28;8798;-85
2023/01/20 09:07:12;;;;;;;;;26.00;25.00;;;;;-146.37;100.00;59337.28;5079862;28;8805;-84
2023/01/20 09:09:38;;;;;;;;;22.50;22.25;;;;;-146.37;100.00;59337.28;5067904;28;8801;-85
2023/01/20 09:12:15;;;;;;;;;21.67;19.67;;;;;-146.37;100.00;59337.28;5077162;28;8852;-85
2023/01/20 09:14:41;;;;;;;;;20.25;20.25;;;;;-146.37;100.00;59337.28;5083091;28;8817;-84
2023/01/20 09:17:06;;;;;;;;;18.33;18.33;;;;;-146.37;100.00;59337.28;5085804;28;8938;-85
2023/01/20 09:19:32;;;;;;;;;23.33;22.00;;;;;-146.37;100.00;59337.28;5088442;28;8857;-86
2023/01/20 09:22:02;;;;;;;;;15.00;15.00;;;;;-146.37;100.00;59337.28;5087121;28;8799;-84
2023/01/20 09:27:50;;;;;;;;;18.00;18.00;;;;;-146.37;100.00;59337.28;5108857;28;8719;-86
2023/01/20 09:30:18;;;;;;;;;15.00;14.00;;;;;-146.37;100.00;59337.28;5107288;28;8822;-86
2023/01/20 09:32:44;;;;;;;;;20.00;14.25;;;;;-146.37;100.00;59337.28;5105090;27;9639;-85
2023/01/20 09:35:10;;;;;;;;;14.67;14.67;;;;;-146.37;100.00;59337.28;5105032;28;8774;-84
2023/01/20 09:43:57;;;;;;;;;15.00;13.00;;;;;-146.37;100.00;59337.28;5071062;28;8773;-85
2023/01/20 09:54:15;;;;;;;;;16.75;14.25;;;;;-146.37;100.00;59337.28;5110767;28;8711;-85
2023/01/20 10:00:26;;;;;;;;;13.50;12.75;;;;;-146.37;100.00;59337.28;5034514;28;8746;-85
2023/01/20 10:03:06;;;;;;;;;10.00;10.00;;;;;-146.37;100.00;59337.28;5102893;28;8741;-85
2023/01/20 10:05:40;;;;;;;;;10.25;10.25;;;;;-146.37;100.00;59337.28;5083607;28;8797;-84
2023/01/20 10:08:11;;;;;;;;;12.50;10.50;;;;;-146.37;100.00;59337.28;5086532;28;8793;-85
2023/01/20 10:10:45;;;;;;;;;10.75;10.75;;;;;-146.37;100.00;59337.28;5104211;28;8779;-86
2023/01/20 10:13:39;;;;;;;;;14.00;6.25;;;;;-146.37;100.00;59337.28;5073233;28;8802;-85
2023/01/20 10:16:11;;;;;;;;;11.00;9.50;;;;;-146.37;100.00;59337.28;5103980;28;8724;-85
2023/01/20 10:18:46;;;;;;;;;10.25;10.25;;;;;-146.37;100.00;59337.28;5087563;28;8759;-85
2023/01/20 10:21:55;;;;;;;;;8.00;8.00;;;;;-146.37;100.00;59337.28;5089691;28;9997;-85
2023/01/20 10:25:09;;;;;;;;;11.25;11.25;;;;;-146.37;100.00;59337.28;5088841;28;8847;-83
2023/01/20 10:27:48;;;;;;;;;13.25;11.00;;;;;-146.37;100.00;59337.28;5082305;28;8823;-83
2023/01/20 10:38:08;;;;;;;;;10.00;10.00;;;;;-146.37;100.00;59337.28;5110916;28;8774;-85
2023/01/20 10:41:19;;;;;;;;;12.00;12.00;;;;;-146.37;100.00;59337.28;5093530;28;8735;-86
2023/01/20 10:43:47;;;;;;;;;11.50;11.50;;;;;-146.37;100.00;59337.28;5062950;28;8721;-85
2023/01/20 10:46:43;;;;;;;;;11.50;10.25;;;;;-146.37;100.00;59337.28;5093914;28;8704;-85
2023/01/20 10:49:40;;;;;;;;;9.75;9.75;;;;;-146.37;100.00;59337.28;5093678;28;8797;-86
2023/01/20 10:52:24;;;;;;;;;11.50;10.75;;;;;-146.37;100.00;59337.28;5094086;28;8746;-87
2023/01/20 10:55:19;;;;;;;;;10.50;9.75;;;;;-146.37;100.00;59337.28;5098023;28;8739;-87
2023/01/20 10:58:10;;;;;;;;;12.00;10.00;;;;;-146.37;100.00;59337.28;5110179;28;8909;-86
2023/01/20 11:00:41;;;;;;;;;7.75;6.25;;;;;-146.37;100.00;59337.28;5115185;28;8749;-85
2023/01/20 11:03:33;;;;;;;;;13.75;11.00;;;;;-146.37;100.00;59337.28;5131238;28;8705;-85
2023/01/20 11:06:06;;;;;;;;;1.00;0.50;;;;;-146.37;100.00;59337.28;5120043;28;8795;-86
2023/01/20 11:09:15;;;;;;;;;13.75;10.00;;;;;-146.37;100.00;59337.28;5112834;28;8733;-86
2023/01/20 11:11:42;;;;;;;;;5.00;5.00;;;;;-146.37;100.00;59337.28;5113297;28;8885;-86
2023/01/20 11:14:11;;;;;;;;;11.50;11.50;;;;;-146.37;100.00;59337.28;5113716;28;8717;-86
2023/01/20 11:16:56;;;;;;;;;9.25;7.50;;;;;-146.37;100.00;59337.28;5101100;28;8720;-86
2023/01/20 11:19:25;;;;;;;;;11.25;10.00;;;;;-146.37;100.00;59337.28;5113254;28;8789;-85
2023/01/20 11:22:13;;;;;;;;;15.00;11.75;;;;;-146.37;100.00;59337.28;5098592;28;8731;-86
2023/01/20 11:25:22;;;;;;;;;14.00;11.50;;;;;-146.37;100.00;59337.28;5093692;28;8716;-86
2023/01/20 11:28:05;;;;;;;;;;;;;;;;;;;;;
2023/01/20 11:30:55;;;;;;;;;11.50;11.50;;;;;-146.37;100.00;59337.28;5110960;28;8794;-86
2023/01/20 11:39:37;;;;;;;;;28.25;27.00;;;;;-146.37;100.00;59337.28;5107023;22;8841;-85
2023/01/20 11:42:20;;;;;;;;;36.25;34.00;;;;;-146.37;100.00;59337.28;5070738;28;8769;-85
2023/01/20 11:45:01;;;;;;;;;18.75;15.50;;;;;-146.37;100.00;59337.28;5088843;28;8745;-85
2023/01/20 11:47:33;;;;;;;;;11.75;10.25;;;;;-146.37;100.00;59337.28;5079712;28;8723;-85
2023/01/20 11:50:39;;;;;;;;;7.75;6.00;;;;;-146.37;100.00;59337.28;5092214;28;8770;-86
2023/01/20 11:53:35;;;;;;;;;17.25;16.00;;;;;-146.37;100.00;59337.28;5090679;28;8737;-84
2023/01/20 11:56:25;;;;;;;;;12.00;11.25;;;;;-146.37;100.00;59337.28;5103630;28;8750;-82
2023/01/20 11:59:03;;;;;;;;;9.75;7.50;;;;;-146.37;100.00;59337.28;5100170;28;8736;-85
2023/01/20 12:01:51;;;;;;;;;9.50;9.50;;;;;-146.37;100.00;59337.28;5087449;28;8763;-85
2023/01/20 12:04:44;;;;;;;;;10.75;8.25;;;;;-146.37;100.00;59337.28;5085139;28;8833;-84
2023/01/20 12:08:01;;;;;;;;;14.25;14.25;;;;;-146.37;100.00;59337.28;5089657;28;8736;-85